This is the latest recevied weather packets stored in our database for station/object OK4ZAW-16. If no packets are shown the sender has not sent any weather packets the latest 10 day(s).
| Time | Temp. | Humidity | Pressure | Rain* | Wind** | Luminosity | Snow |
|---|---|---|---|---|---|---|---|
| 1777775305 | 8.33° C | 10% | - | - | - | - | - |
| 1777774473 | 8.89° C | 99% | 1020.9 hPa | - | - | 150 W/m² | - |
| 1777774056 | 8.89° C | 10% | - | - | - | - | - |
| 1777773640 | 8.89° C | 99% | 1021 hPa | - | - | 150 W/m² | - |
| 1777773224 | 8.89° C | 98% | 1021.1 hPa | - | - | 150 W/m² | - |
| 1777772808 | 8.89° C | 98% | 1021 hPa | - | - | 150 W/m² | - |
| 1777771559 | 8.89° C | 10% | - | - | - | - | - |
| 1777769894 | 8.89° C | 99% | 1021.1 hPa | - | - | 150 W/m² | - |
| 1777768645 | 8.89° C | 95% | 1021.3 hPa | - | - | 150 W/m² | - |
| 1777768229 | 8.89° C | 93% | 1021.3 hPa | - | - | 150 W/m² | - |
| 1777767812 | 8.89° C | 91% | 1021.4 hPa | - | - | 150 W/m² | - |
| 1777767396 | 9.44° C | 89% | 1021.5 hPa | - | - | 150 W/m² | - |
| 1777765315 | 9.44° C | 80% | 1021.6 hPa | - | - | 150 W/m² | - |
| 1777764066 | 9.44° C | 74% | 1021.8 hPa | - | - | 150 W/m² | - |
| 1777760734 | 10° C | 55% | 1022.2 hPa | - | - | 150 W/m² | - |
| 1777760318 | 10° C | 57% | 1022.1 hPa | - | - | 150 W/m² | - |
| 1777757819 | 10.56° C | 68% | 1022.1 hPa | - | - | 150 W/m² | - |
| 1777756986 | 10.56° C | 69% | 1022.2 hPa | - | - | 150 W/m² | - |
| 1777756569 | 10.56° C | 70% | 1022.3 hPa | - | - | 150 W/m² | - |
| 1777756153 | 10.56° C | 71% | 1022.4 hPa | - | - | 150 W/m² | - |
| 1777754904 | 10.56° C | 73% | 1022.5 hPa | - | - | 150 W/m² | - |
| 1777753654 | 10.56° C | 73% | 1022.7 hPa | - | - | 150 W/m² | - |
| 1777753238 | 10.56° C | 72% | 1022.8 hPa | - | - | 150 W/m² | - |
| 1777752404 | 10.56° C | 68% | 1022.8 hPa | - | - | 150 W/m² | - |
| 1777751155 | 11.11° C | 59% | 1022.9 hPa | - | - | 150 W/m² | - |
* Rain since midnight (hover to see other rain measurements)
** Current wind speed in m/s (hover to see current wind gust speed)